createdAt,value
2018-08-17T00:00:44.224Z,27.60
2018-08-17T00:03:12.720Z,30.73
2018-08-17T00:05:41.261Z,31.20
2018-08-17T00:08:09.841Z,31.50
2018-08-17T00:10:38.305Z,31.63
2018-08-17T00:13:06.789Z,32.80
2018-08-17T00:15:35.261Z,32.50
2018-08-17T00:18:03.806Z,30.10
2018-08-17T00:20:32.305Z,30.10
2018-08-17T00:23:00.749Z,30.50
2018-08-17T00:25:29.572Z,33.33
2018-08-17T00:27:58.024Z,32.70
2018-08-17T00:30:26.466Z,32.90
2018-08-17T00:32:54.914Z,33.73
2018-08-17T00:35:23.577Z,33.77
2018-08-17T00:37:52.011Z,37.20
2018-08-17T00:40:20.479Z,34.23
2018-08-17T00:42:48.964Z,32.20
2018-08-17T00:45:17.493Z,34.77
2018-08-17T00:47:45.949Z,32.97
2018-08-17T00:50:14.405Z,34.53
2018-08-17T00:52:42.881Z,38.43
2018-08-17T00:55:11.340Z,36.90
2018-08-17T00:57:39.906Z,39.47
2018-08-17T01:00:08.421Z,41.33
2018-08-17T01:02:36.862Z,42.03
2018-08-17T01:05:06.120Z,40.90
2018-08-17T01:07:35.296Z,43.83
2018-08-17T01:10:04.100Z,41.77
2018-08-17T01:12:32.545Z,43.13
2018-08-17T01:15:01.014Z,41.63
2018-08-17T01:17:29.476Z,42.07
2018-08-17T01:19:57.976Z,42.77
2018-08-17T01:22:26.458Z,46.73
2018-08-17T01:24:54.940Z,39.30
2018-08-17T01:27:23.419Z,48.30
2018-08-17T01:29:51.898Z,42.63
2018-08-17T01:32:20.537Z,43.00
2018-08-17T01:34:49.408Z,44.57
2018-08-17T01:37:17.832Z,40.90
2018-08-17T01:39:46.296Z,41.20
2018-08-17T01:42:15.240Z,44.77
2018-08-17T01:44:43.721Z,39.43
2018-08-17T01:47:12.140Z,37.67
2018-08-17T01:49:41.017Z,36.20
2018-08-17T01:52:09.456Z,32.57
2018-08-17T01:54:37.944Z,31.03
2018-08-17T01:57:06.409Z,30.93
2018-08-17T01:59:35.424Z,31.83
2018-08-17T02:02:04.183Z,28.47
2018-08-17T02:04:32.636Z,25.50
2018-08-17T02:07:01.111Z,23.57
2018-08-17T02:09:29.552Z,23.27
2018-08-17T02:11:58.040Z,22.77
2018-08-17T02:14:26.501Z,25.27
2018-08-17T02:16:55.018Z,20.77
2018-08-17T02:19:23.480Z,24.33
2018-08-17T02:21:51.940Z,21.27
2018-08-17T02:24:20.936Z,22.03
2018-08-17T02:26:49.474Z,19.83
2018-08-17T02:29:18.490Z,19.90
2018-08-17T02:31:46.989Z,17.57
2018-08-17T02:34:15.436Z,23.23
2018-08-17T02:36:43.903Z,20.97
2018-08-17T02:39:12.401Z,27.03
2018-08-17T02:41:40.910Z,27.87
2018-08-17T02:44:09.381Z,24.33
2018-08-17T02:46:37.834Z,25.47
2018-08-17T02:49:06.304Z,27.30
2018-08-17T02:51:34.789Z,29.73
2018-08-17T02:54:03.270Z,26.73
2018-08-17T02:56:31.716Z,28.07
2018-08-17T02:59:00.153Z,26.97
2018-08-17T03:01:28.608Z,28.70
2018-08-17T03:03:57.085Z,28.80
2018-08-17T03:06:25.569Z,29.83
2018-08-17T03:08:54.078Z,29.60
2018-08-17T03:11:22.544Z,29.87
2018-08-17T03:13:51.389Z,30.27
2018-08-17T03:16:19.853Z,30.07
2018-08-17T03:18:48.320Z,28.80
2018-08-17T03:21:16.772Z,31.77
2018-08-17T03:23:45.227Z,28.87
2018-08-17T03:26:13.811Z,29.93
2018-08-17T03:28:42.249Z,27.50
2018-08-17T03:31:10.793Z,28.50
2018-08-17T03:33:39.308Z,24.97
2018-08-17T03:36:07.736Z,24.27
2018-08-17T03:38:36.256Z,26.47
2018-08-17T03:41:04.696Z,26.67
2018-08-17T03:43:33.166Z,28.27
2018-08-17T03:46:01.595Z,28.37
2018-08-17T03:48:30.253Z,27.93
2018-08-17T03:50:59.248Z,27.10
2018-08-17T03:53:27.696Z,23.77
2018-08-17T03:55:56.133Z,28.90
2018-08-17T03:58:24.624Z,27.33
2018-08-17T04:00:53.372Z,25.00
2018-08-17T04:03:21.825Z,27.43
2018-08-17T04:05:50.293Z,28.87
2018-08-17T04:08:18.764Z,27.93
2018-08-17T04:10:47.213Z,24.90
2018-08-17T04:13:15.650Z,27.40
2018-08-17T04:15:44.135Z,25.60
2018-08-17T04:18:12.568Z,30.43
2018-08-17T04:20:41.042Z,28.80
2018-08-17T04:23:09.512Z,29.70
2018-08-17T04:25:38.036Z,43.10
2018-08-17T04:28:06.720Z,36.13
2018-08-17T04:30:35.231Z,31.90
2018-08-17T04:33:03.737Z,43.70
2018-08-17T04:35:32.237Z,38.93
2018-08-17T04:38:00.878Z,42.53
2018-08-17T04:40:29.516Z,42.13
2018-08-17T04:42:58.002Z,38.30
2018-08-17T04:45:26.459Z,36.23
2018-08-17T04:47:55.564Z,33.10
2018-08-17T04:50:24.076Z,32.83
2018-08-17T04:52:52.539Z,38.30
2018-08-17T04:55:21.014Z,32.53
2018-08-17T04:57:49.454Z,41.30
2018-08-17T05:00:17.963Z,44.00
2018-08-17T05:02:46.428Z,36.37
2018-08-17T05:05:14.864Z,38.47
2018-08-17T05:07:43.312Z,51.47
2018-08-17T05:10:12.702Z,39.17
2018-08-17T05:12:41.258Z,42.10
2018-08-17T05:15:10.276Z,33.10
2018-08-17T05:17:38.744Z,44.90
2018-08-17T05:20:07.402Z,54.63
2018-08-17T05:22:35.899Z,46.17
2018-08-17T05:25:05.085Z,45.37
2018-08-17T05:27:33.525Z,44.57
2018-08-17T05:30:02.085Z,43.27
2018-08-17T05:32:30.544Z,33.67
2018-08-17T05:34:59.048Z,36.77
2018-08-17T05:37:27.510Z,38.03
2018-08-17T05:39:56.024Z,38.50
2018-08-17T05:42:24.543Z,38.77
2018-08-17T05:44:53.017Z,51.57
2018-08-17T05:47:21.502Z,45.53
2018-08-17T05:49:49.964Z,48.17
2018-08-17T05:52:18.456Z,40.07
2018-08-17T05:54:46.921Z,43.13
2018-08-17T05:57:15.357Z,42.27
2018-08-17T05:59:43.871Z,55.27
2018-08-17T06:02:12.335Z,61.80
2018-08-17T06:04:40.969Z,45.77
2018-08-17T06:07:09.462Z,35.93
2018-08-17T06:09:38.004Z,34.13
2018-08-17T06:12:06.568Z,36.83
2018-08-17T06:14:35.049Z,29.23
2018-08-17T06:17:03.561Z,23.30
2018-08-17T06:19:31.985Z,25.20
2018-08-17T06:22:00.449Z,25.33
2018-08-17T06:24:28.878Z,28.67
2018-08-17T06:26:58.396Z,29.90
2018-08-17T06:29:26.915Z,22.10
2018-08-17T06:31:55.672Z,27.73
2018-08-17T06:34:24.269Z,36.17
2018-08-17T06:36:52.736Z,30.37
2018-08-17T06:39:21.189Z,27.63
2018-08-17T06:41:49.643Z,32.07
2018-08-17T06:44:18.113Z,32.50
2018-08-17T06:46:46.608Z,31.97
2018-08-17T06:49:15.050Z,35.70
2018-08-17T06:51:43.508Z,41.63
2018-08-17T06:54:11.982Z,47.87
2018-08-17T06:56:40.465Z,45.50
2018-08-17T06:59:09.064Z,56.30
2018-08-17T07:01:37.549Z,53.97
2018-08-17T07:04:07.067Z,43.07
2018-08-17T07:06:35.596Z,40.03
2018-08-17T07:09:05.542Z,35.23
2018-08-17T07:11:33.881Z,32.47
2018-08-17T07:14:02.560Z,32.00
2018-08-17T07:16:35.229Z,32.43
2018-08-17T07:19:05.029Z,26.93
2018-08-17T07:21:33.576Z,31.07
2018-08-17T07:24:02.357Z,28.80
2018-08-17T07:26:30.853Z,23.73
2018-08-17T07:28:59.423Z,30.43
2018-08-17T07:31:29.200Z,28.50
2018-08-17T07:33:57.660Z,28.43
2018-08-17T07:36:26.137Z,22.93
2018-08-17T07:38:54.593Z,25.40
2018-08-17T07:41:23.036Z,22.27
2018-08-17T07:43:52.361Z,19.47
2018-08-17T07:46:20.839Z,19.10
2018-08-17T07:48:49.318Z,19.23
2018-08-17T07:51:17.781Z,18.70
2018-08-17T07:53:46.250Z,17.33
2018-08-17T07:56:14.745Z,23.27
2018-08-17T07:58:43.801Z,18.93
2018-08-17T08:01:12.269Z,17.93
2018-08-17T08:03:40.732Z,18.27
2018-08-17T08:06:09.261Z,20.00
2018-08-17T08:08:37.715Z,19.23
2018-08-17T08:11:06.664Z,20.37
2018-08-17T08:13:35.778Z,13.93
2018-08-17T08:16:04.579Z,13.83
2018-08-17T08:18:33.039Z,15.07
2018-08-17T08:21:01.514Z,15.20
2018-08-17T08:23:30.861Z,16.43
2018-08-17T08:25:59.621Z,16.43
2018-08-17T08:28:28.084Z,17.10
2018-08-17T08:30:56.528Z,15.60
2018-08-17T08:33:24.989Z,15.50
2018-08-17T08:35:53.488Z,11.63
2018-08-17T08:38:21.975Z,13.77
2018-08-17T08:40:50.477Z,13.13
2018-08-17T08:43:19.006Z,11.80
2018-08-17T08:45:47.563Z,12.63
2018-08-17T08:48:16.003Z,11.67
2018-08-17T08:50:44.456Z,14.30
2018-08-17T08:53:12.914Z,13.07
2018-08-17T08:55:41.373Z,12.87
2018-08-17T08:58:09.828Z,14.33
2018-08-17T09:00:38.313Z,14.47
2018-08-17T09:03:07.301Z,13.93
2018-08-17T09:05:35.792Z,11.83
2018-08-17T09:08:04.575Z,11.17
2018-08-17T09:10:33.500Z,13.67
2018-08-17T09:13:02.029Z,15.50
2018-08-17T09:15:30.557Z,14.83
2018-08-17T09:17:59.094Z,14.00
2018-08-17T09:20:27.647Z,13.67
2018-08-17T09:22:55.985Z,15.97
2018-08-17T09:25:24.508Z,16.10
2018-08-17T09:27:53.015Z,13.30
2018-08-17T09:30:21.505Z,17.37
2018-08-17T09:32:49.971Z,13.53
2018-08-17T09:35:18.438Z,13.73
2018-08-17T09:37:46.878Z,14.97
2018-08-17T09:40:15.344Z,13.43
2018-08-17T09:42:43.781Z,15.80
2018-08-17T09:45:13.361Z,15.10
2018-08-17T09:47:41.868Z,15.33
2018-08-17T09:50:13.479Z,15.73
2018-08-17T09:52:41.993Z,18.03
2018-08-17T09:55:10.477Z,19.87
2018-08-17T09:57:39.003Z,22.63
2018-08-17T10:00:08.932Z,25.63
2018-08-17T10:02:42.749Z,26.40
2018-08-17T10:05:16.628Z,26.63
2018-08-17T10:07:50.329Z,21.83
2018-08-17T10:10:22.229Z,20.67
2018-08-17T10:12:51.512Z,20.10
2018-08-17T10:15:20.061Z,18.17
2018-08-17T10:17:48.520Z,17.33
2018-08-17T10:20:21.336Z,19.93
2018-08-17T10:22:49.834Z,18.17
2018-08-17T10:25:20.748Z,18.87
2018-08-17T10:27:50.561Z,21.17
2018-08-17T10:30:20.169Z,17.70
2018-08-17T10:33:00.476Z,17.67
2018-08-17T10:35:33.001Z,18.60
2018-08-17T10:38:02.832Z,19.77
2018-08-17T10:40:31.388Z,16.17
2018-08-17T10:43:00.893Z,16.60
2018-08-17T10:45:29.882Z,16.13
2018-08-17T10:47:58.701Z,17.17
2018-08-17T10:50:28.687Z,14.87
2018-08-17T10:52:58.520Z,14.60
2018-08-17T10:55:39.252Z,15.23
2018-08-17T10:58:08.909Z,15.47
2018-08-17T11:00:37.345Z,17.07
2018-08-17T11:03:06.032Z,16.70
2018-08-17T11:05:34.548Z,18.60
2018-08-17T11:08:03.016Z,13.97
2018-08-17T11:10:31.465Z,15.93
2018-08-17T11:12:59.899Z,15.00
2018-08-17T11:15:28.393Z,15.13
2018-08-17T11:17:56.927Z,10.27
2018-08-17T11:20:25.393Z,14.20
2018-08-17T11:22:53.900Z,11.57
2018-08-17T11:25:22.417Z,14.63
2018-08-17T11:27:51.470Z,13.43
2018-08-17T11:30:19.973Z,12.20
2018-08-17T11:32:48.428Z,11.13
2018-08-17T11:35:16.946Z,13.50
2018-08-17T11:37:45.423Z,14.03
2018-08-17T11:40:14.004Z,11.70
2018-08-17T11:42:47.952Z,11.17
2018-08-17T11:45:18.667Z,11.47
2018-08-17T11:47:47.715Z,12.20
2018-08-17T11:50:18.033Z,11.53
2018-08-17T11:52:51.528Z,13.17
2018-08-17T11:55:21.032Z,11.07
2018-08-17T11:57:49.595Z,10.77
2018-08-17T12:00:18.369Z,11.53
2018-08-17T12:02:47.192Z,12.27
2018-08-17T12:05:15.790Z,14.13
2018-08-17T12:07:45.580Z,11.43
2018-08-17T12:10:14.060Z,14.63
2018-08-17T12:12:43.352Z,11.87
2018-08-17T12:15:12.938Z,9.00
2018-08-17T12:17:41.667Z,8.10
2018-08-17T12:20:10.415Z,9.17
2018-08-17T12:22:38.917Z,9.63
2018-08-17T12:25:08.611Z,7.57
2018-08-17T12:27:37.084Z,9.13
2018-08-17T12:30:06.995Z,7.77
2018-08-17T12:32:35.449Z,13.20
2018-08-17T12:35:03.975Z,12.03
2018-08-17T12:37:32.455Z,10.93
2018-08-17T12:40:00.947Z,8.87
2018-08-17T12:42:29.412Z,11.57
2018-08-17T12:45:02.524Z,9.80
2018-08-17T12:47:31.902Z,9.93
2018-08-17T12:50:00.384Z,7.60
2018-08-17T12:52:28.965Z,9.87
2018-08-17T12:54:57.294Z,9.10
2018-08-17T12:57:29.993Z,7.90
2018-08-17T12:59:58.464Z,8.73
2018-08-17T13:02:26.948Z,10.07
2018-08-17T13:04:55.400Z,7.20
2018-08-17T13:07:23.860Z,8.70
2018-08-17T13:09:54.881Z,10.43
2018-08-17T13:12:23.350Z,12.10
2018-08-17T13:14:52.482Z,8.90
2018-08-17T13:17:21.098Z,9.53
2018-08-17T13:19:49.545Z,7.20
2018-08-17T13:22:18.039Z,9.73
2018-08-17T13:24:46.521Z,10.80
2018-08-17T13:27:14.933Z,10.27
2018-08-17T13:29:43.444Z,9.33
2018-08-17T13:32:11.855Z,8.90
2018-08-17T13:34:40.344Z,9.77
2018-08-17T13:37:08.794Z,11.97
2018-08-17T13:39:37.314Z,8.23
2018-08-17T13:42:05.929Z,8.73
2018-08-17T13:44:34.557Z,9.27
2018-08-17T13:47:03.044Z,11.20
2018-08-17T13:49:31.545Z,11.07
2018-08-17T13:52:00.057Z,12.37
2018-08-17T13:54:28.860Z,8.70
2018-08-17T13:56:57.353Z,9.53
2018-08-17T13:59:25.809Z,10.17
2018-08-17T14:01:54.278Z,9.50
2018-08-17T14:04:22.708Z,9.73
2018-08-17T14:06:51.182Z,6.80
2018-08-17T14:09:19.660Z,10.30
2018-08-17T14:11:48.201Z,8.97
2018-08-17T14:14:16.637Z,7.50
2018-08-17T14:16:45.137Z,8.50
2018-08-17T14:19:13.569Z,7.83
2018-08-17T14:21:42.102Z,7.60
2018-08-17T14:24:10.560Z,8.57
2018-08-17T14:26:39.089Z,12.17
2018-08-17T14:29:07.585Z,11.03
2018-08-17T14:31:36.014Z,5.97
2018-08-17T14:34:04.536Z,7.00
2018-08-17T14:36:39.655Z,7.67
2018-08-17T14:39:08.201Z,6.37
2018-08-17T14:41:47.490Z,5.13
2018-08-17T14:44:15.997Z,6.43
2018-08-17T14:46:44.567Z,5.43
2018-08-17T14:49:13.024Z,7.93
2018-08-17T14:51:41.535Z,5.73
2018-08-17T14:54:09.989Z,7.60
2018-08-17T14:56:38.453Z,8.03
2018-08-17T14:59:07.205Z,6.43
2018-08-17T15:01:35.681Z,5.70
2018-08-17T15:04:04.148Z,7.30
2018-08-17T15:06:32.622Z,4.43
2018-08-17T15:09:01.526Z,9.33
2018-08-17T15:11:29.978Z,5.73
2018-08-17T15:13:58.468Z,6.80
2018-08-17T15:16:27.033Z,7.80
2018-08-17T15:18:55.889Z,5.83
2018-08-17T15:21:24.535Z,6.63
2018-08-17T15:23:53.001Z,13.37
2018-08-17T15:26:21.536Z,5.73
2018-08-17T15:28:50.036Z,4.37
2018-08-17T15:31:18.691Z,7.03
2018-08-17T15:33:47.181Z,5.10
2018-08-17T15:36:15.903Z,5.63
2018-08-17T15:38:44.424Z,8.40
2018-08-17T15:41:13.032Z,4.00
2018-08-17T15:43:41.645Z,4.20
2018-08-17T15:46:10.259Z,7.67
2018-08-17T15:48:43.936Z,6.10
2018-08-17T15:51:13.122Z,4.23
2018-08-17T15:53:42.828Z,7.10
2018-08-17T15:56:11.977Z,9.00
2018-08-17T15:58:40.457Z,5.70
2018-08-17T16:01:09.212Z,6.43
2018-08-17T16:03:37.745Z,8.70
2018-08-17T16:06:06.442Z,5.67
2018-08-17T16:08:35.141Z,6.50
2018-08-17T16:11:03.985Z,4.20
2018-08-17T16:13:32.694Z,4.73
2018-08-17T16:16:01.437Z,8.83
2018-08-17T16:18:30.423Z,8.53
2018-08-17T16:20:59.080Z,6.13
2018-08-17T16:23:27.812Z,6.07
2018-08-17T16:25:56.328Z,3.43
2018-08-17T16:28:24.808Z,5.23
2018-08-17T16:30:53.292Z,4.10
2018-08-17T16:33:21.759Z,4.00
2018-08-17T16:35:50.228Z,2.63
2018-08-17T16:38:18.736Z,5.53
2018-08-17T16:40:53.036Z,7.67
2018-08-17T16:43:23.448Z,6.70
2018-08-17T16:45:51.940Z,3.93
2018-08-17T16:48:20.906Z,5.80
2018-08-17T16:50:49.356Z,4.50
2018-08-17T16:53:17.840Z,5.50
2018-08-17T16:55:46.365Z,3.33
2018-08-17T16:58:14.926Z,3.77
2018-08-17T17:00:43.540Z,5.43
2018-08-17T17:03:11.968Z,10.57
2018-08-17T17:05:40.553Z,6.43
2018-08-17T17:08:08.980Z,6.57
2018-08-17T17:10:37.468Z,5.43
2018-08-17T17:13:06.324Z,6.90
2018-08-17T17:15:34.926Z,4.93
2018-08-17T17:18:08.508Z,4.37
2018-08-17T17:20:37.940Z,4.97
2018-08-17T17:23:07.712Z,3.87
2018-08-17T17:25:36.408Z,3.73
2018-08-17T17:28:04.921Z,4.43
2018-08-17T17:30:40.163Z,5.43
2018-08-17T17:33:09.105Z,3.97
2018-08-17T17:35:38.525Z,5.30
2018-08-17T17:38:07.408Z,4.07
2018-08-17T17:40:36.059Z,7.53
2018-08-17T17:43:04.852Z,6.13
2018-08-17T17:45:33.303Z,4.17
2018-08-17T17:48:02.579Z,7.13
2018-08-17T17:50:31.553Z,7.10
2018-08-17T17:53:01.161Z,5.60
2018-08-17T17:55:51.458Z,4.53
2018-08-17T17:58:21.187Z,3.90
2018-08-17T18:00:58.072Z,6.67
2018-08-17T18:03:29.683Z,6.00
2018-08-17T18:06:05.199Z,4.80
2018-08-17T18:08:37.869Z,3.80
2018-08-17T18:11:06.537Z,5.13
2018-08-17T18:13:34.966Z,3.67
2018-08-17T18:16:03.417Z,4.63
2018-08-17T18:18:32.336Z,4.43
2018-08-17T18:21:00.857Z,5.20
2018-08-17T18:23:29.325Z,3.07
2018-08-17T18:25:57.832Z,6.90
2018-08-17T18:28:26.333Z,5.33
2018-08-17T18:30:54.857Z,7.23
2018-08-17T18:33:23.248Z,7.03
2018-08-17T18:35:51.743Z,7.17
2018-08-17T18:38:20.196Z,8.40
2018-08-17T18:40:48.639Z,4.90
2018-08-17T18:43:17.072Z,6.37
2018-08-17T18:45:45.576Z,5.40
2018-08-17T18:48:14.025Z,5.53
2018-08-17T18:50:42.473Z,3.90
2018-08-17T18:53:10.910Z,6.40
2018-08-17T18:55:39.383Z,6.33
2018-08-17T18:58:07.869Z,4.40
2018-08-17T19:00:36.317Z,5.67
2018-08-17T19:03:04.783Z,6.70
2018-08-17T19:05:33.293Z,7.90
2018-08-17T19:08:01.700Z,7.40
2018-08-17T19:10:30.228Z,5.37
2018-08-17T19:12:58.726Z,9.03
2018-08-17T19:15:27.190Z,7.60
2018-08-17T19:17:55.701Z,7.10
2018-08-17T19:20:24.165Z,7.37
2018-08-17T19:22:52.637Z,5.37
2018-08-17T19:25:21.069Z,4.60
2018-08-17T19:27:49.530Z,8.20
2018-08-17T19:30:31.024Z,7.83
2018-08-17T19:33:04.225Z,8.00
2018-08-17T19:35:32.702Z,6.43
2018-08-17T19:38:01.197Z,6.03
2018-08-17T19:40:29.728Z,6.97
2018-08-17T19:42:58.209Z,8.87
2018-08-17T19:45:26.941Z,8.57
2018-08-17T19:47:55.369Z,6.00
2018-08-17T19:50:23.814Z,9.20
2018-08-17T19:52:52.321Z,8.10
2018-08-17T19:55:20.749Z,5.47
2018-08-17T19:57:49.201Z,13.17
2018-08-17T20:00:17.692Z,9.73
2018-08-17T20:02:46.204Z,9.37
2018-08-17T20:05:15.310Z,8.17
2018-08-17T20:07:43.801Z,4.60
2018-08-17T20:10:13.461Z,6.43
2018-08-17T20:12:42.671Z,6.00
2018-08-17T20:15:11.261Z,9.00
2018-08-17T20:17:40.150Z,8.97
2018-08-17T20:20:10.852Z,6.70
2018-08-17T20:22:39.310Z,9.10
2018-08-17T20:25:15.932Z,5.17
2018-08-17T20:27:45.119Z,7.63
2018-08-17T20:30:19.592Z,7.00
2018-08-17T20:32:49.461Z,5.77
2018-08-17T20:35:17.948Z,7.27
2018-08-17T20:37:48.684Z,7.83
2018-08-17T20:40:17.784Z,7.63
2018-08-17T20:42:46.465Z,6.67
2018-08-17T20:45:14.949Z,5.37
2018-08-17T20:47:44.196Z,6.37
2018-08-17T20:50:17.880Z,8.17
2018-08-17T20:52:55.848Z,4.87
2018-08-17T20:55:24.312Z,7.43
2018-08-17T20:57:53.782Z,5.20
2018-08-17T21:00:23.459Z,5.67
2018-08-17T21:02:51.970Z,5.20
2018-08-17T21:05:20.541Z,4.43
2018-08-17T21:07:49.437Z,4.77
2018-08-17T21:10:17.920Z,4.23
2018-08-17T21:12:46.912Z,8.70
2018-08-17T21:15:15.541Z,6.10
2018-08-17T21:17:44.406Z,6.30
2018-08-17T21:20:12.913Z,8.03
2018-08-17T21:22:41.489Z,7.13
2018-08-17T21:25:09.989Z,4.73
2018-08-17T21:27:38.425Z,7.37
2018-08-17T21:30:08.050Z,6.90
2018-08-17T21:32:36.588Z,6.97
2018-08-17T21:35:06.541Z,6.30
2018-08-17T21:37:35.048Z,3.77
2018-08-17T21:40:03.944Z,4.50
2018-08-17T21:42:32.388Z,4.77
2018-08-17T21:45:00.878Z,5.00
2018-08-17T21:47:29.375Z,6.27
2018-08-17T21:50:04.912Z,5.27
2018-08-17T21:52:33.388Z,4.73
2018-08-17T21:55:01.825Z,6.43
2018-08-17T21:57:30.266Z,4.57
2018-08-17T21:59:58.708Z,5.93
2018-08-17T22:02:27.268Z,5.10
2018-08-17T22:04:55.684Z,7.57
2018-08-17T22:07:25.157Z,3.93
2018-08-17T22:09:54.257Z,5.93
2018-08-17T22:12:22.781Z,5.47
2018-08-17T22:14:51.200Z,5.50
2018-08-17T22:17:33.145Z,4.00
2018-08-17T22:20:01.981Z,3.90
2018-08-17T22:22:30.484Z,6.30
2018-08-17T22:24:59.802Z,7.67
2018-08-17T22:27:29.182Z,3.63
2018-08-17T22:29:58.593Z,9.73
2018-08-17T22:32:27.084Z,4.20
2018-08-17T22:34:55.881Z,5.90
2018-08-17T22:37:24.345Z,3.53
2018-08-17T22:39:52.784Z,7.57
2018-08-17T22:42:22.472Z,4.47
2018-08-17T22:44:51.206Z,5.17
2018-08-17T22:47:23.688Z,3.67
2018-08-17T22:49:53.109Z,5.40
2018-08-17T22:52:21.667Z,7.13
2018-08-17T22:54:58.310Z,4.40
2018-08-17T22:57:27.496Z,4.67
2018-08-17T23:00:10.946Z,4.30
2018-08-17T23:02:40.627Z,6.93
2018-08-17T23:05:10.974Z,5.57
2018-08-17T23:07:39.433Z,6.00
2018-08-17T23:10:13.779Z,3.93
2018-08-17T23:12:42.902Z,9.63
2018-08-17T23:15:12.097Z,4.73
2018-08-17T23:17:42.047Z,5.83
2018-08-17T23:20:10.493Z,4.97
2018-08-17T23:22:44.873Z,4.10
2018-08-17T23:25:13.657Z,5.67
2018-08-17T23:27:42.670Z,3.30
2018-08-17T23:30:11.164Z,5.20
2018-08-17T23:32:39.688Z,4.50
2018-08-17T23:35:08.480Z,4.43
2018-08-17T23:37:37.268Z,7.53
2018-08-17T23:40:06.722Z,4.67
2018-08-17T23:42:35.267Z,5.33
2018-08-17T23:45:04.428Z,4.63
2018-08-17T23:47:33.393Z,4.57
2018-08-17T23:50:01.940Z,5.10
2018-08-17T23:52:30.408Z,4.43
2018-08-17T23:54:58.969Z,5.53
2018-08-17T23:57:27.602Z,7.63
2018-08-17T23:59:57.610Z,5.60
